aviador You're here:

KALI Decoded Metar

ALICE in TX, USA
Report Time2018-07-20 18:53:00
UTC Time2018-07-20 19:59:14
Flight Rules vfr VFR
Wind170° at 08 Gusting to 18 kt
W.Decomp.*RWY 17: 8.0 kt HW 0.8 kt LCW
RWY 13: 6.6 kt HW 4.5 kt RCW
W.Rank170° ranks 6
Current wind is below 170° avg. (9.2)
Visibility9999 m
Phenomena:N/A
Clouds:N/A
Expected CloudBase > 6,000 ft AGL from Temp-Dew spread
CeilingNone
Temp36°C (ISA +21)
Dew Point21°C (42% RH)
Heat Index39.9°C
QNH1013 hPa
Density Alt2,920 ft
Elevation174 ft
Report Wrong Elevation
Raw Report
KALI 201853Z AUTO 17008G18KT 10SM CLR 36/21 A2992 RMK AO2 SLP128
T03560211=

Extra information for KALI:More info

Metar Taf Metar & Taf Last 4 Metars F.Rules Stats Wind Profile Meteogram Temp Stats Airport Information Weather charts Add Link Nearby VenuesMetar ALERT Operation Metar Decoded Social comments

AIRNAV info for KALI